D/T METAR WX W/DIR W/SPE G/SPE TEMP DEWP
16/01/19 02:50 EGNS 160250Z 21020KT 9999 BKN012 OVC045 09/08 Q1001 SSW (210°) 23.0mph 9°C 8°C
16/01/19 01:50 EGNS 160150Z 22019KT 6000 -RADZ BKN010 BKN030 09/08 Q1002 -RA -DZ SW (220°) 21.9mph 9°C 8°C
16/01/19 00:50 EGNS 160050Z 22018KT 9999 -RADZ SCT010 BKN020 OVC040 09/08 Q1003 -RA -DZ SW (220°) 20.7mph 9°C 8°C
15/01/19 23:50 EGNS 152350Z 23018KT 9999 SCT024 BKN038 10/08 Q1004 SW (230°) 20.7mph 10°C 8°C
15/01/19 22:50 EGNS 152250Z 22019KT 9999 FEW022 BKN034 10/08 Q1005 SW (220°) 21.9mph 10°C 8°C
15/01/19 21:50 EGNS 152150Z 22017KT 9999 BKN022 10/07 Q1006 SW (220°) 19.6mph 10°C 7°C
15/01/19 20:50 EGNS 152050Z 22018KT 9999 BKN024 10/08 Q1007 SW (220°) 20.7mph 10°C 8°C
15/01/19 20:20 EGNS 152020Z 22018KT 9999 BKN024 10/07 Q1007 TEMPO 7000 -RADZ SW (220°) 20.7mph 10°C 7°C
15/01/19 19:50 EGNS 151950Z 22019KT 9999 BKN023 10/07 Q1008 TEMPO 7000 -RADZ SW (220°) 21.9mph 10°C 7°C
15/01/19 19:20 EGNS 151920Z 22018KT 190V250 9999 BKN022 10/07 Q1008 TEMPO 7000 -RADZ SW (220°) 20.7mph 10°C 7°C
15/01/19 18:50 EGNS 151850Z 22020KT 9999 FEW015 BKN024 10/07 Q1008 NOSIG SW (220°) 23.0mph 10°C 7°C
15/01/19 18:20 EGNS 151820Z 22018KT 9999 FEW015 BKN023 10/07 Q1009 NOSIG SW (220°) 20.7mph 10°C 7°C
15/01/19 17:50 EGNS 151750Z 22017KT 9999 FEW015 BKN021 10/07 Q1009 NOSIG SW (220°) 19.6mph 10°C 7°C
15/01/19 17:20 EGNS 151720Z 21016KT 9999 FEW015 OVC022 09/07 Q1010 NOSIG SSW (210°) 18.4mph 9°C 7°C
15/01/19 16:50 EGNS 151650Z 21017KT 9999 FEW014 SCT018 BKN023 09/07 Q1010 NOSIG SSW (210°) 19.6mph 9°C 7°C
15/01/19 16:20 EGNS 151620Z 22017KT 9999 FEW014 SCT018 BKN022 09/07 Q1011 NOSIG SW (220°) 19.6mph 9°C 7°C
15/01/19 15:50 EGNS 151550Z 23018KT 9999 FEW014 SCT018 BKN022 09/07 Q1011 NOSIG SW (230°) 20.7mph 9°C 7°C
15/01/19 15:20 EGNS 151520Z 22017KT 9999 FEW014 SCT018 BKN023 09/06 Q1011 NOSIG SW (220°) 19.6mph 9°C 6°C
15/01/19 14:50 EGNS 151450Z 22017KT 9999 FEW014 SCT018 BKN035 09/06 Q1012 NOSIG SW (220°) 19.6mph 9°C 6°C
15/01/19 14:20 EGNS 151420Z 23019KT 9999 FEW016 BKN035 09/05 Q1012 NOSIG SW (230°) 21.9mph 9°C 5°C
15/01/19 13:50 EGNS 151350Z 23021KT 9999 FEW016 SCT042 09/06 Q1012 NOSIG SW (230°) 24.2mph 9°C 6°C
15/01/19 13:20 EGNS 151320Z 23018KT 9999 FEW018 SCT042 09/06 Q1013 NOSIG SW (230°) 20.7mph 9°C 6°C
15/01/19 12:50 EGNS 151250Z 23018KT 9999 FEW017 BKN045 10/06 Q1014 NOSIG SW (230°) 20.7mph 10°C 6°C
15/01/19 12:20 EGNS 151220Z 23017KT 9999 FEW017 BKN042 10/06 Q1014 NOSIG SW (230°) 19.6mph 10°C 6°C
15/01/19 11:50 EGNS 151150Z 24017KT 9999 FEW018 BKN040 10/06 Q1014 NOSIG WSW (240°) 19.6mph 10°C 6°C
15/01/19 11:20 EGNS 151120Z 24017KT 9999 FEW015 BKN040 10/06 Q1015 NOSIG WSW (240°) 19.6mph 10°C 6°C
15/01/19 10:50 EGNS 151050Z 24018KT 9999 FEW015 BKN041 10/06 Q1015 NOSIG WSW (240°) 20.7mph 10°C 6°C
15/01/19 10:20 EGNS 151020Z 25017KT 9999 FEW014 BKN043 10/06 Q1015 NOSIG WSW (250°) 19.6mph 10°C 6°C
15/01/19 09:50 EGNS 150950Z 25016KT 9999 FEW012 BKN043 09/06 Q1015 NOSIG WSW (250°) 18.4mph 9°C 6°C
15/01/19 09:20 EGNS 150920Z 25018KT 9999 FEW010 BKN045 09/07 Q1015 NOSIG WSW (250°) 20.7mph 9°C 7°C
15/01/19 08:50 EGNS 150850Z 26019KT 9999 FEW010 BKN045 09/07 Q1015 NOSIG W (260°) 21.9mph 9°C 7°C
15/01/19 08:20 EGNS 150820Z 26016KT 9999 FEW008 09/07 Q1015 NOSIG W (260°) 18.4mph 9°C 7°C
15/01/19 07:50 EGNS 150750Z 25017KT 9999 FEW010 09/07 Q1015 NOSIG WSW (250°) 19.6mph 9°C 7°C
15/01/19 07:20 EGNS 150720Z 26015KT 9999 FEW012 09/07 Q1015 NOSIG W (260°) 17.3mph 9°C 7°C
15/01/19 06:50 EGNS 150650Z 26014KT 230V290 9999 FEW009 09/07 Q1015 NOSIG W (260°) 16.1mph 9°C 7°C
15/01/19 06:20 EGNS 150620Z 27012KT 210V300 9999 FEW010 09/07 Q1015 NOSIG W (270°) 13.8mph 9°C 7°C
15/01/19 05:50 EGNS 150550Z 27010KT 230V300 9999 SCT010 09/07 Q1016 NOSIG W (270°) 11.5mph 9°C 7°C
15/01/19 05:20 EGNS 150520Z 26010KT 230V300 9999 BKN010 09/07 Q1016 NOSIG W (260°) 11.5mph 9°C 7°C
15/01/19 04:50 EGNS 150450Z 27011KT 240V300 9999 SCT010 09/07 Q1016 W (270°) 12.7mph 9°C 7°C
15/01/19 03:50 EGNS 150350Z 26016KT 230V290 9999 FEW010 09/07 Q1017 W (260°) 18.4mph 9°C 7°C
15/01/19 02:50 EGNS 150250Z 25017KT 220V280 9999 FEW009 09/07 Q1017 WSW (250°) 19.6mph 9°C 7°C
15/01/19 01:50 EGNS 150150Z 25016KT 220V280 9999 SCT009 09/07 Q1018 WSW (250°) 18.4mph 9°C 7°C
15/01/19 00:50 EGNS 150050Z 25015KT 9999 BKN009 BKN048 09/07 Q1018 NOSIG WSW (250°) 17.3mph 9°C 7°C
14/01/19 23:50 EGNS 142350Z 24016KT 9999 BKN009 OVC030 09/07 Q1019 NOSIG WSW (240°) 18.4mph 9°C 7°C
14/01/19 23:20 EGNS 142320Z 25016KT 220V280 9999 BKN008 OVC032 09/07 Q1019 NOSIG WSW (250°) 18.4mph 9°C 7°C
14/01/19 22:50 EGNS 142250Z 25015KT 220V280 9999 BKN007 BKN030 09/07 Q1019 WSW (250°) 17.3mph 9°C 7°C
14/01/19 21:50 EGNS 142150Z 25016KT 220V280 9999 SCT009 BKN032 09/07 Q1019 WSW (250°) 18.4mph 9°C 7°C
14/01/19 20:50 EGNS 142050Z 26018KT 9999 SCT013 BKN040 09/06 Q1019 TEMPO BKN014 W (260°) 20.7mph 9°C 6°C
14/01/19 20:20 EGNS 142020Z 25014KT 9999 BKN013 BKN020 09/06 Q1020 TEMPO SCT014 WSW (250°) 16.1mph 9°C 6°C
14/01/19 19:50 EGNS 141950Z 25014KT 9999 BKN017 09/06 Q1020 TEMPO BKN014 WSW (250°) 16.1mph 9°C 6°C
14/01/19 19:20 EGNS 141920Z 25015KT 9999 SCT016 BKN022 09/06 Q1020 TEMPO BKN014 WSW (250°) 17.3mph 9°C 6°C
14/01/19 18:50 EGNS 141850Z 25013KT 9999 FEW018 BKN025 09/05 Q1020 NOSIG WSW (250°) 15.0mph 9°C 5°C
14/01/19 18:20 EGNS 141820Z 25013KT 9999 SCT024 BKN030 09/04 Q1021 NOSIG WSW (250°) 15.0mph 9°C 4°C
14/01/19 17:50 EGNS 141750Z 26012KT 9999 BKN031 08/04 Q1021 NOSIG W (260°) 13.8mph 8°C 4°C
14/01/19 17:20 EGNS 141720Z 25011KT 9999 FEW020 SCT035 08/04 Q1021 NOSIG WSW (250°) 12.7mph 8°C 4°C
14/01/19 16:50 EGNS 141650Z 25010KT 9999 FEW020 BKN040 08/04 Q1021 NOSIG WSW (250°) 11.5mph 8°C 4°C
14/01/19 16:20 EGNS 141620Z 25009KT 9999 FEW020 BKN038 08/04 Q1021 NOSIG WSW (250°) 10.4mph 8°C 4°C
14/01/19 15:50 EGNS 141550Z 26008KT 9999 VCSH FEW018 SCT040 08/04 Q1021 NOSIG VCSH W (260°) 9.2mph 8°C 4°C
14/01/19 15:20 EGNS 141520Z 27009KT 9999 FEW018 BKN044 08/04 Q1021 NOSIG W (270°) 10.4mph 8°C 4°C
14/01/19 14:50 EGNS 141450Z 29013KT 9999 FEW018 BKN038 09/04 Q1021 NOSIG WNW (290°) 15.0mph 9°C 4°C
14/01/19 14:20 EGNS 141420Z 27010KT 9999 FEW018 BKN045 08/05 Q1021 NOSIG W (270°) 11.5mph 8°C 5°C
14/01/19 13:50 EGNS 141350Z 28014KT 9999 FEW020 09/04 Q1021 NOSIG W (280°) 16.1mph 9°C 4°C
14/01/19 13:20 EGNS 141320Z 28012KT 9999 FEW020 09/04 Q1021 NOSIG W (280°) 13.8mph 9°C 4°C
14/01/19 12:50 EGNS 141250Z 28012KT 9999 FEW022 09/04 Q1021 NOSIG W (280°) 13.8mph 9°C 4°C
14/01/19 12:20 EGNS 141220Z 28012KT 9999 FEW022 BKN045 09/04 Q1021 NOSIG W (280°) 13.8mph 9°C 4°C
14/01/19 11:50 EGNS 141150Z 28013KT 9999 FEW022 BKN040 08/04 Q1021 NOSIG W (280°) 15.0mph 8°C 4°C
14/01/19 11:20 EGNS 141120Z 28012KT 9999 FEW020 SCT042 09/04 Q1021 NOSIG W (280°) 13.8mph 9°C 4°C
14/01/19 10:20 EGNS 141020Z 27008KT 9999 FEW020 SCT045 08/04 Q1021 NOSIG W (270°) 9.2mph 8°C 4°C
14/01/19 09:50 EGNS 140950Z 27011KT 9999 FEW020 08/04 Q1021 NOSIG W (270°) 12.7mph 8°C 4°C
14/01/19 09:20 EGNS 140920Z 27011KT 240V300 9999 -SHRA FEW020 SCT040 08/04 Q1021 NOSIG -SHRA W (270°) 12.7mph 8°C 4°C
14/01/19 08:50 EGNS 140850Z 27010KT 250V310 9999 FEW022 BKN034 08/04 Q1021 NOSIG W (270°) 11.5mph 8°C 4°C
14/01/19 08:20 EGNS 140820Z 27011KT 9999 FEW023 08/03 Q1021 NOSIG W (270°) 12.7mph 8°C 3°C
14/01/19 07:20 EGNS 140720Z 27007KT 210V320 9999 FEW022 SCT040 08/03 Q1020 NOSIG W (270°) 8.1mph 8°C 3°C
14/01/19 06:50 EGNS 140650Z 29013G23KT 240V330 9999 FEW020 SCT039 08/03 Q1019 NOSIG WNW (290°) 15.0mph 26.5mph 8°C 3°C
14/01/19 06:20 EGNS 140620Z 27008KT 220V340 9999 FEW025 BKN045 08/03 Q1020 NOSIG W (270°) 9.2mph 8°C 3°C
14/01/19 05:20 EGNS 140520Z 29008KT 240V350 9999 FEW025 SCT045 08/03 Q1019 NOSIG WNW (290°) 9.2mph 8°C 3°C
14/01/19 04:50 EGNS 140450Z 31010KT 230V350 9999 FEW025 SCT048 08/03 Q1019 NW (310°) 11.5mph 8°C 3°C
14/01/19 03:50 EGNS 140350Z 29015KT 260V340 9999 FEW020 SCT045 08/03 Q1018 WNW (290°) 17.3mph 8°C 3°C
14/01/19 02:50 EGNS 140250Z 28010KT 240V340 9999 FEW020 08/04 Q1018 W (280°) 11.5mph 8°C 4°C
14/01/19 01:50 EGNS 140150Z 30013KT 250V350 9999 FEW023 BKN037 08/04 Q1018 WNW (300°) 15.0mph 8°C 4°C
14/01/19 00:50 EGNS 140050Z 31019G30KT 260V340 9999 FEW025 08/04 Q1016 NW (310°) 21.9mph 34.5mph 8°C 4°C
13/01/19 23:50 EGNS 132350Z 30018G30KT 260V350 9999 FEW025 SCT032 09/03 Q1015 WNW (300°) 20.7mph 34.5mph 9°C 3°C
13/01/19 22:50 EGNS 132250Z 30019G29KT 260V340 9999 FEW025 08/03 Q1014 WNW (300°) 21.9mph 33.4mph 8°C 3°C
13/01/19 22:20 EGNS 132220Z 31022G32KT 270V350 9999 FEW025 08/03 Q1014 NOSIG NW (310°) 25.3mph 36.8mph 8°C 3°C
13/01/19 21:50 EGNS 132150Z 30021G33KT 260V350 9999 FEW028 09/03 Q1014 NOSIG WNW (300°) 24.2mph 38.0mph 9°C 3°C
13/01/19 21:20 EGNS 132120Z 30022G33KT 270V340 9999 FEW022 09/02 Q1014 NOSIG WNW (300°) 25.3mph 38.0mph 9°C 2°C
13/01/19 20:50 EGNS 132050Z 30023G35KT 260V340 9999 FEW025 09/03 Q1014 NOSIG WNW (300°) 26.5mph 40.3mph 9°C 3°C
13/01/19 20:20 EGNS 132020Z 30021G33KT 260V350 9999 FEW025 SCT035 09/03 Q1014 NOSIG WNW (300°) 24.2mph 38.0mph 9°C 3°C
13/01/19 19:50 EGNS 131950Z 30022KT 260V350 9999 FEW022 SCT032 09/03 Q1014 NOSIG WNW (300°) 25.3mph 9°C 3°C
13/01/19 19:20 EGNS 131920Z 30020G32KT 250V330 9999 FEW025 BKN030 09/03 Q1013 NOSIG WNW (300°) 23.0mph 36.8mph 9°C 3°C
13/01/19 18:50 EGNS 131850Z 30019G30KT 240V330 9999 FEW025 SCT038 09/03 Q1013 NOSIG WNW (300°) 21.9mph 34.5mph 9°C 3°C
13/01/19 18:20 EGNS 131820Z 29020KT 260V330 9999 FEW030 SCT036 09/02 Q1013 NOSIG WNW (290°) 23.0mph 9°C 2°C
13/01/19 17:20 EGNS 131720Z 29016KT 240V340 9999 FEW025 SCT040 09/03 Q1013 NOSIG WNW (290°) 18.4mph 9°C 3°C
13/01/19 16:50 EGNS 131650Z 29017G29KT 260V340 9999 FEW030 SCT045 10/03 Q1013 NOSIG WNW (290°) 19.6mph 33.4mph 10°C 3°C
13/01/19 16:20 EGNS 131620Z 30019KT 250V360 9999 FEW025 10/02 Q1013 NOSIG WNW (300°) 21.9mph 10°C 2°C
13/01/19 15:50 EGNS 131550Z 29019G30KT 250V350 9999 -SHRA SCT025 BKN038 10/03 Q1013 NOSIG -SHRA WNW (290°) 21.9mph 34.5mph 10°C 3°C
13/01/19 15:20 EGNS 131520Z 30017KT 250V340 9999 FEW020 10/04 Q1012 TEMPO 8000 SHRA WNW (300°) 19.6mph 10°C 4°C
13/01/19 14:50 EGNS 131450Z 31019G30KT 270V010 9999 SCT020 BKN040 10/05 Q1012 TEMPO 8000 NW (310°) 21.9mph 34.5mph 10°C 5°C
13/01/19 14:20 EGNS 131420Z 29019KT 260V330 9999 SCT020 10/06 Q1012 TEMPO 8000 SHRA WNW (290°) 21.9mph 10°C 6°C
13/01/19 13:50 EGNS 131350Z 30019G29KT 260V350 9999 FEW020 11/06 Q1012 TEMPO 8000 SHRA WNW (300°) 21.9mph 33.4mph 11°C 6°C
13/01/19 13:20 EGNS 131320Z 29020G32KT 250V340 9999 8000W -SHRA FEW015 SCT020 BKN040 10/07 Q1011 NOSIG -SHRA WNW (290°) 23.0mph 36.8mph 10°C 7°C
13/01/19 12:50 EGNS 131250Z 29022G37KT 260V330 9999 FEW020 11/06 Q1011 NOSIG WNW (290°) 25.3mph 42.6mph 11°C 6°C
13/01/19 11:50 EGNS 131150Z 29019G29KT 250V350 9999 FEW014 SCT020 11/08 Q1011 NOSIG WNW (290°) 21.9mph 33.4mph 11°C 8°C
13/01/19 10:50 EGNS 131050Z 27015KT 240V300 9999 FEW008 SCT014 BKN034 11/09 Q1012 NOSIG W (270°) 17.3mph 11°C 9°C
13/01/19 10:20 EGNS 131020Z 27018KT 240V300 9999 FEW008 BKN010 BKN035 10/09 Q1012 NOSIG W (270°) 20.7mph 10°C 9°C
13/01/19 09:50 EGNS 130950Z 27020KT 240V310 9999 8000N -DZ FEW009 BKN012 BKN020 11/08 Q1013 NOSIG -DZ W (270°) 23.0mph 11°C 8°C
13/01/19 09:20 EGNS 130920Z 27017KT 240V300 9999 FEW010 BKN015 10/08 Q1013 NOSIG W (270°) 19.6mph 10°C 8°C
13/01/19 08:20 EGNS 130820Z 26017KT 230V300 9999 FEW012 BKN016 10/08 Q1013 NOSIG W (260°) 19.6mph 10°C 8°C
13/01/19 07:50 EGNS 130750Z 26022KT 9999 SCT013 10/08 Q1012 NOSIG W (260°) 25.3mph 10°C 8°C
13/01/19 07:20 EGNS 130720Z 29024KT 260V320 9999 FEW016 BKN033 10/07 Q1013 NOSIG WNW (290°) 27.6mph 10°C 7°C
13/01/19 06:50 EGNS 130650Z 29025KT 250V320 9999 SCT017 BKN033 10/07 Q1013 TEMPO 7000 -RADZ BKN010 WNW (290°) 28.8mph 10°C 7°C
13/01/19 06:20 EGNS 130620Z 26020G30KT 230V290 9999 BKN017 BKN048 10/07 Q1013 TEMPO 28030G40KT 7000 -RADZ BKN010 W (260°) 23.0mph 34.5mph 10°C 7°C
13/01/19 05:50 EGNS 130550Z 27023KT 9999 SCT019 BKN048 10/07 Q1013 TEMPO 7000 -RADZ BKN010 W (270°) 26.5mph 10°C 7°C
13/01/19 04:50 EGNS 130450Z 28026G38KT 250V320 9999 FEW022 10/07 Q1014 W (280°) 29.9mph 43.7mph 10°C 7°C
13/01/19 03:50 EGNS 130350Z 28025KT 250V310 9999 FEW018 10/07 Q1014 W (280°) 28.8mph 10°C 7°C
13/01/19 02:50 EGNS 130250Z 28021G31KT 240V300 9999 FEW018 10/07 Q1015 W (280°) 24.2mph 35.7mph 10°C 7°C
13/01/19 01:50 EGNS 130150Z 28022G33KT 250V310 9999 SCT018 10/07 Q1016 W (280°) 25.3mph 38.0mph 10°C 7°C
13/01/19 00:50 EGNS 130050Z 28018KT 9999 FEW015 SCT020 10/07 Q1017 W (280°) 20.7mph 10°C 7°C
12/01/19 23:50 EGNS 122350Z 27019KT 240V300 9999 FEW015 SCT024 11/07 Q1017 W (270°) 21.9mph 11°C 7°C
12/01/19 22:50 EGNS 122250Z 27015KT 230V310 9999 BKN015 BKN021 11/08 Q1018 W (270°) 17.3mph 11°C 8°C
12/01/19 21:50 EGNS 122150Z 26016KT 220V300 9999 FEW015 BKN020 11/08 Q1019 W (260°) 18.4mph 11°C 8°C
12/01/19 20:50 EGNS 122050Z 28023G34KT 250V330 9999 FEW014 BKN021 11/08 Q1019 W (280°) 26.5mph 39.1mph 11°C 8°C
12/01/19 20:20 EGNS 122020Z 28023G33KT 250V310 9999 FEW015 BKN023 11/08 Q1019 NOSIG W (280°) 26.5mph 38.0mph 11°C 8°C
12/01/19 19:50 EGNS 121950Z 28021G32KT 250V310 9999 FEW015 BKN023 11/08 Q1019 NOSIG W (280°) 24.2mph 36.8mph 11°C 8°C
12/01/19 19:20 EGNS 121920Z 28020KT 250V320 9999 FEW018 SCT040 11/08 Q1019 NOSIG W (280°) 23.0mph 11°C 8°C
12/01/19 18:50 EGNS 121850Z 28017KT 250V310 9999 BKN039 11/08 Q1019 NOSIG W (280°) 19.6mph 11°C 8°C
12/01/19 18:20 EGNS 121820Z 28021G31KT 250V320 9999 BKN037 11/08 Q1019 NOSIG W (280°) 24.2mph 35.7mph 11°C 8°C
12/01/19 17:50 EGNS 121750Z 28020G31KT 240V310 9999 BKN037 11/08 Q1019 NOSIG W (280°) 23.0mph 35.7mph 11°C 8°C
12/01/19 17:20 EGNS 121720Z 28019KT 250V310 9999 FEW014 SCT038 11/08 Q1018 NOSIG W (280°) 21.9mph 11°C 8°C
12/01/19 16:50 EGNS 121650Z 28021G31KT 240V310 9999 FEW014 BKN038 11/08 Q1018 NOSIG W (280°) 24.2mph 35.7mph 11°C 8°C
12/01/19 16:20 EGNS 121620Z 28020KT 240V320 9999 FEW014 BKN035 11/08 Q1018 NOSIG W (280°) 23.0mph 11°C 8°C
12/01/19 15:50 EGNS 121550Z 27020G30KT 9999 FEW013 BKN025 10/08 Q1018 NOSIG W (270°) 23.0mph 34.5mph 10°C 8°C
12/01/19 15:20 EGNS 121520Z 27017KT 240V300 9999 FEW009 BKN015 BKN020 10/08 Q1018 NOSIG W (270°) 19.6mph 10°C 8°C
12/01/19 14:50 EGNS 121450Z 27018G29KT 240V320 9999 FEW009 BKN015 BKN020 10/08 Q1019 NOSIG W (270°) 20.7mph 33.4mph 10°C 8°C
12/01/19 14:20 EGNS 121420Z 27018G28KT 240V300 9999 FEW009 BKN012 BKN020 10/08 Q1019 NOSIG W (270°) 20.7mph 32.2mph 10°C 8°C
12/01/19 13:50 EGNS 121350Z 27017G27KT 230V300 9999 BKN010 OVC016 09/08 Q1020 TEMPO 7000 W (270°) 19.6mph 31.1mph 9°C 8°C
12/01/19 13:20 EGNS 121320Z 27017KT 240V300 9999 -DZ SCT010 OVC016 09/07 Q1020 TEMPO 7000 -DZ W (270°) 19.6mph 9°C 7°C
12/01/19 12:50 EGNS 121250Z 28017KT 250V310 9999 FEW010 BKN016 OVC024 09/06 Q1020 TEMPO 7000 -RADZ W (280°) 19.6mph 9°C 6°C
12/01/19 12:20 EGNS 121220Z 28016KT 240V310 9999 FEW010 SCT016 OVC030 09/06 Q1021 TEMPO 7000 -RADZ BKN012 W (280°) 18.4mph 9°C 6°C
12/01/19 11:50 EGNS 121150Z 28018G28KT 250V310 9999 FEW012 SCT016 OVC045 09/06 Q1021 TEMPO 7000 -RADZ BKN012 W (280°) 20.7mph 32.2mph 9°C 6°C
12/01/19 11:20 EGNS 121120Z 28018KT 240V310 9999 FEW012 BKN016 BKN022 09/06 Q1022 TEMPO 7000 W (280°) 20.7mph 9°C 6°C
12/01/19 10:20 EGNS 121020Z 27014KT 230V310 9999 FEW010 BKN016 OVC025 09/07 Q1022 TEMPO 7000 W (270°) 16.1mph 9°C 7°C
12/01/19 09:50 EGNS 120950Z 28016KT 9999 7000E -RADZ FEW010 BKN015 OVC022 08/07 Q1022 NOSIG -RA DZ W (280°) 18.4mph 8°C 7°C
12/01/19 09:20 EGNS 120920Z 28016KT 240V310 9999 -DZ FEW014 SCT015 BKN025 09/06 Q1022 TEMPO NSW -DZ W (280°) 18.4mph 9°C 6°C